createdAt,value
2018-06-13T00:01:04.856Z,8.23
2018-06-13T00:03:33.018Z,8.43
2018-06-13T00:06:00.579Z,7.93
2018-06-13T00:08:28.252Z,8.10
2018-06-13T00:10:55.697Z,7.63
2018-06-13T00:13:23.088Z,7.97
2018-06-13T00:15:50.757Z,8.60
2018-06-13T00:18:18.300Z,7.97
2018-06-13T00:20:45.964Z,7.80
2018-06-13T00:23:13.510Z,8.17
2018-06-13T00:25:41.124Z,8.30
2018-06-13T00:28:08.654Z,8.23
2018-06-13T00:30:36.231Z,8.40
2018-06-13T00:33:03.740Z,8.20
2018-06-13T00:35:31.409Z,8.60
2018-06-13T00:37:59.213Z,8.20
2018-06-13T00:40:26.725Z,8.63
2018-06-13T00:42:54.279Z,8.47
2018-06-13T00:45:21.922Z,8.20
2018-06-13T00:47:49.364Z,8.73
2018-06-13T00:50:16.757Z,9.27
2018-06-13T00:52:44.202Z,9.20
2018-06-13T00:55:11.720Z,9.23
2018-06-13T00:57:39.291Z,8.87
2018-06-13T01:00:06.788Z,8.90
2018-06-13T01:02:35.053Z,8.33
2018-06-13T01:05:02.489Z,8.80
2018-06-13T01:07:30.100Z,8.97
2018-06-13T01:09:57.728Z,8.13
2018-06-13T01:12:25.129Z,8.30
2018-06-13T01:14:52.692Z,8.17
2018-06-13T01:17:20.328Z,8.53
2018-06-13T01:19:47.771Z,8.03
2018-06-13T01:22:15.297Z,8.40
2018-06-13T01:24:42.800Z,8.43
2018-06-13T01:27:10.491Z,8.10
2018-06-13T01:29:37.977Z,8.20
2018-06-13T01:32:05.665Z,7.77
2018-06-13T01:34:33.620Z,7.27
2018-06-13T01:37:01.037Z,7.70
2018-06-13T01:39:28.631Z,7.17
2018-06-13T01:41:56.073Z,7.67
2018-06-13T01:44:23.708Z,7.27
2018-06-13T01:46:51.128Z,7.60
2018-06-13T01:49:18.854Z,6.43
2018-06-13T01:51:46.512Z,7.23
2018-06-13T01:54:14.234Z,5.90
2018-06-13T01:56:41.704Z,6.03
2018-06-13T01:59:09.473Z,5.93
2018-06-13T02:01:36.919Z,5.73
2018-06-13T02:04:04.687Z,5.83
2018-06-13T02:06:32.145Z,6.03
2018-06-13T02:08:59.843Z,5.37
2018-06-13T02:11:27.408Z,5.63
2018-06-13T02:13:54.968Z,4.87
2018-06-13T02:16:22.421Z,5.00
2018-06-13T02:18:50.017Z,4.90
2018-06-13T02:21:17.488Z,5.17
2018-06-13T02:23:45.231Z,5.13
2018-06-13T02:26:12.705Z,5.03
2018-06-13T02:28:40.057Z,5.13
2018-06-13T02:31:07.331Z,4.53
2018-06-13T02:33:34.624Z,4.87
2018-06-13T02:36:01.930Z,5.27
2018-06-13T02:38:29.297Z,4.77
2018-06-13T02:40:56.567Z,4.57
2018-06-13T02:43:23.868Z,4.60
2018-06-13T02:45:51.168Z,4.90
2018-06-13T02:48:18.505Z,4.60
2018-06-13T02:50:45.837Z,4.83
2018-06-13T02:53:13.124Z,4.70
2018-06-13T02:55:40.447Z,5.03
2018-06-13T02:58:07.716Z,4.43
2018-06-13T03:00:35.000Z,5.13
2018-06-13T03:03:02.284Z,4.90
2018-06-13T03:05:29.589Z,4.90
2018-06-13T03:07:56.882Z,4.67
2018-06-13T03:10:24.182Z,4.30
2018-06-13T03:12:51.465Z,4.93
2018-06-13T03:15:18.772Z,5.73
2018-06-13T03:17:46.051Z,4.70
2018-06-13T03:20:13.393Z,4.67
2018-06-13T03:22:40.651Z,5.53
2018-06-13T03:25:07.939Z,5.10
2018-06-13T03:27:35.208Z,5.60
2018-06-13T03:30:02.532Z,5.57
2018-06-13T03:32:29.803Z,5.80
2018-06-13T03:34:57.106Z,5.00
2018-06-13T03:37:24.384Z,5.37
2018-06-13T03:39:51.730Z,5.87
2018-06-13T03:42:19.023Z,6.30
2018-06-13T03:44:46.332Z,5.87
2018-06-13T03:47:13.630Z,5.67
2018-06-13T03:49:40.917Z,6.40
2018-06-13T03:52:08.184Z,6.20
2018-06-13T03:54:35.490Z,6.27
2018-06-13T03:57:02.769Z,7.40
2018-06-13T03:59:30.094Z,6.33
2018-06-13T04:01:57.387Z,7.30
2018-06-13T04:04:24.693Z,6.77
2018-06-13T04:06:52.025Z,6.83
2018-06-13T04:09:19.296Z,6.87
2018-06-13T04:12:03.548Z,8.00
2018-06-13T04:14:30.834Z,7.77
2018-06-13T04:16:58.137Z,7.70
2018-06-13T04:19:26.414Z,6.73
2018-06-13T04:21:53.740Z,7.80
2018-06-13T04:24:21.008Z,8.13
2018-06-13T04:26:48.305Z,7.63
2018-06-13T04:29:15.575Z,6.77
2018-06-13T04:31:42.860Z,7.67
2018-06-13T04:34:10.140Z,7.17
2018-06-13T04:36:37.436Z,8.17
2018-06-13T04:39:07.045Z,7.50
2018-06-13T04:41:34.948Z,7.20
2018-06-13T04:44:02.249Z,7.50
2018-06-13T04:46:29.552Z,7.50
2018-06-13T04:48:56.876Z,8.13
2018-06-13T04:51:24.232Z,7.60
2018-06-13T04:53:51.495Z,7.60
2018-06-13T04:56:18.801Z,7.43
2018-06-13T04:58:46.074Z,7.93
2018-06-13T05:01:13.345Z,7.50
2018-06-13T05:03:40.690Z,6.60
2018-06-13T05:06:08.025Z,6.83
2018-06-13T05:08:35.292Z,6.60
2018-06-13T05:11:02.597Z,6.57
2018-06-13T05:13:29.864Z,6.60
2018-06-13T05:15:57.165Z,6.97
2018-06-13T05:18:24.427Z,6.77
2018-06-13T05:20:51.730Z,7.80
2018-06-13T05:23:19.017Z,7.10
2018-06-13T05:25:46.338Z,7.03
2018-06-13T05:28:13.622Z,7.30
2018-06-13T05:30:40.922Z,7.77
2018-06-13T05:33:08.191Z,7.40
2018-06-13T05:35:35.502Z,7.30
2018-06-13T05:38:02.795Z,7.97
2018-06-13T05:40:30.076Z,8.43
2018-06-13T05:42:57.397Z,8.37
2018-06-13T05:45:24.696Z,8.60
2018-06-13T05:47:52.025Z,7.83
2018-06-13T05:50:19.316Z,7.50
2018-06-13T05:52:46.601Z,7.70
2018-06-13T05:55:13.881Z,7.83
2018-06-13T05:57:41.198Z,7.10
2018-06-13T06:00:08.733Z,6.90
2018-06-13T06:02:36.601Z,7.60
2018-06-13T06:05:04.428Z,7.67
2018-06-13T06:07:32.988Z,7.10
2018-06-13T06:10:01.433Z,7.60
2018-06-13T06:12:28.757Z,7.93
2018-06-13T06:14:56.108Z,7.37
2018-06-13T06:17:23.485Z,7.73
2018-06-13T06:19:51.935Z,7.37
2018-06-13T06:22:19.660Z,7.50
2018-06-13T06:24:48.035Z,7.60
2018-06-13T06:27:15.980Z,7.83
2018-06-13T06:29:43.808Z,7.40
2018-06-13T06:32:12.137Z,6.80
2018-06-13T06:34:40.436Z,7.20
2018-06-13T06:37:07.893Z,8.07
2018-06-13T06:39:35.541Z,7.23
2018-06-13T06:42:03.120Z,7.70
2018-06-13T06:44:31.243Z,7.30
2018-06-13T06:46:59.137Z,7.23
2018-06-13T06:49:26.984Z,7.50
2018-06-13T06:51:54.979Z,7.43
2018-06-13T06:54:23.863Z,7.60
2018-06-13T06:56:51.583Z,7.70
2018-06-13T06:59:19.899Z,8.13
2018-06-13T07:01:49.012Z,7.43
2018-06-13T07:04:16.632Z,7.23
2018-06-13T07:06:45.438Z,7.67
2018-06-13T07:09:13.293Z,7.30
2018-06-13T07:11:40.780Z,7.33
2018-06-13T07:14:09.054Z,7.53
2018-06-13T07:16:36.899Z,7.33
2018-06-13T07:19:05.587Z,8.10
2018-06-13T07:21:33.392Z,7.87
2018-06-13T07:24:00.881Z,8.27
2018-06-13T07:26:28.265Z,7.80
2018-06-13T07:28:56.000Z,7.70
2018-06-13T07:31:24.066Z,8.00
2018-06-13T07:33:52.501Z,7.93
2018-06-13T07:36:20.245Z,8.23
2018-06-13T07:38:48.751Z,8.20
2018-06-13T07:41:16.459Z,9.10
2018-06-13T07:43:44.269Z,8.17
2018-06-13T07:46:12.249Z,9.00
2018-06-13T07:48:40.497Z,8.60
2018-06-13T07:51:08.121Z,8.03
2018-06-13T07:53:36.310Z,7.77
2018-06-13T07:56:04.497Z,7.57
2018-06-13T07:58:33.222Z,7.93
2018-06-13T08:01:00.831Z,7.90
2018-06-13T08:03:29.282Z,7.90
2018-06-13T08:05:57.477Z,6.40
2018-06-13T08:08:24.957Z,6.43
2018-06-13T08:10:53.040Z,5.57
2018-06-13T08:13:23.478Z,5.60
2018-06-13T08:15:50.859Z,5.43
2018-06-13T08:18:18.620Z,4.50
2018-06-13T08:20:46.095Z,4.90
2018-06-13T08:23:13.739Z,4.43
2018-06-13T08:25:42.544Z,4.00
2018-06-13T08:28:11.565Z,3.40
2018-06-13T08:30:39.477Z,3.30
2018-06-13T08:33:07.210Z,4.20
2018-06-13T08:35:35.047Z,4.10
2018-06-13T08:38:03.169Z,3.83
2018-06-13T08:40:30.766Z,4.10
2018-06-13T08:42:59.048Z,4.10
2018-06-13T08:45:27.553Z,5.23
2018-06-13T08:47:55.352Z,4.67
2018-06-13T08:50:23.445Z,4.50
2018-06-13T08:52:50.813Z,4.60
2018-06-13T08:55:18.524Z,4.33
2018-06-13T08:57:46.055Z,5.20
2018-06-13T09:00:14.153Z,4.57
2018-06-13T09:02:42.009Z,4.60
2018-06-13T09:05:10.227Z,4.93
2018-06-13T09:07:38.220Z,4.40
2018-06-13T09:10:06.390Z,4.80
2018-06-13T09:12:35.264Z,4.50
2018-06-13T09:15:03.297Z,4.43
2018-06-13T09:17:32.349Z,4.47
2018-06-13T09:20:00.070Z,3.87
2018-06-13T09:22:28.162Z,4.60
2018-06-13T09:24:56.021Z,4.50
2018-06-13T09:27:23.751Z,4.10
2018-06-13T09:29:51.841Z,4.10
2018-06-13T09:32:19.560Z,3.90
2018-06-13T09:34:47.846Z,3.67
2018-06-13T09:37:16.083Z,3.90
2018-06-13T09:39:43.604Z,3.53
2018-06-13T09:42:11.697Z,3.47
2018-06-13T09:44:39.898Z,3.40
2018-06-13T09:47:15.132Z,3.00
2018-06-13T09:49:36.222Z,2.80
2018-06-13T09:52:04.248Z,2.53
2018-06-13T09:54:31.742Z,2.70
2018-06-13T09:56:59.589Z,2.77
2018-06-13T09:59:31.745Z,3.37
2018-06-13T10:02:04.615Z,3.47
2018-06-13T10:04:32.372Z,3.40
2018-06-13T10:07:00.820Z,3.50
2018-06-13T10:09:29.358Z,4.13
2018-06-13T10:11:57.537Z,3.50
2018-06-13T10:14:25.154Z,3.70
2018-06-13T10:16:53.193Z,3.97
2018-06-13T10:19:20.848Z,3.70
2018-06-13T10:21:48.551Z,3.70
2018-06-13T10:24:17.879Z,3.93
2018-06-13T10:26:45.481Z,4.10
2018-06-13T10:29:13.503Z,3.93
2018-06-13T10:31:41.308Z,3.60
2018-06-13T10:34:09.407Z,3.73
2018-06-13T10:36:36.805Z,3.90
2018-06-13T10:39:06.650Z,4.30
2018-06-13T10:41:35.140Z,4.47
2018-06-13T10:44:02.891Z,4.73
2018-06-13T10:46:33.856Z,4.00
2018-06-13T10:49:01.519Z,4.43
2018-06-13T10:51:29.120Z,4.10
2018-06-13T10:53:57.268Z,4.10
2018-06-13T10:56:25.022Z,4.10
2018-06-13T10:58:52.363Z,3.83
2018-06-13T11:01:20.425Z,3.73
2018-06-13T11:03:47.912Z,3.73
2018-06-13T11:06:15.227Z,3.20
2018-06-13T11:08:43.040Z,3.37
2018-06-13T11:11:10.686Z,3.63
2018-06-13T11:13:39.364Z,3.57
2018-06-13T11:16:06.881Z,3.50
2018-06-13T11:18:34.508Z,3.10
2018-06-13T11:21:02.026Z,3.10
2018-06-13T11:23:30.789Z,2.83
2018-06-13T11:25:58.920Z,2.90
2018-06-13T11:28:27.127Z,2.70
2018-06-13T11:30:55.439Z,3.17
2018-06-13T11:33:22.811Z,2.90
2018-06-13T11:35:50.629Z,3.13
2018-06-13T11:38:18.997Z,3.13
2018-06-13T11:40:46.547Z,2.93
2018-06-13T11:43:14.708Z,2.90
2018-06-13T11:45:43.088Z,2.83
2018-06-13T11:48:10.622Z,2.77
2018-06-13T11:50:39.025Z,2.90
2018-06-13T11:53:07.551Z,2.33
2018-06-13T11:55:35.771Z,2.83
2018-06-13T11:58:03.940Z,2.73
2018-06-13T12:00:31.689Z,2.57
2018-06-13T12:02:59.541Z,2.67
2018-06-13T12:05:26.836Z,2.57
2018-06-13T12:07:55.678Z,2.10
2018-06-13T12:10:23.729Z,2.03
2018-06-13T12:12:51.164Z,2.60
2018-06-13T12:15:19.051Z,2.20
2018-06-13T12:17:46.528Z,2.40
2018-06-13T12:20:14.587Z,2.40
2018-06-13T12:22:42.733Z,2.23
2018-06-13T12:25:11.409Z,2.67
2018-06-13T12:27:38.908Z,2.63
2018-06-13T12:30:12.718Z,2.60
2018-06-13T12:32:40.974Z,2.93
2018-06-13T12:35:08.680Z,2.93
2018-06-13T12:37:50.667Z,3.10
2018-06-13T12:40:18.466Z,3.13
2018-06-13T12:42:46.549Z,3.27
2018-06-13T12:45:14.736Z,3.43
2018-06-13T12:47:42.975Z,2.93
2018-06-13T12:50:10.519Z,2.57
2018-06-13T12:52:38.365Z,2.87
2018-06-13T12:55:06.213Z,2.90
2018-06-13T12:57:33.872Z,3.27
2018-06-13T13:00:01.717Z,3.10
2018-06-13T13:02:29.457Z,3.10
2018-06-13T13:04:57.813Z,2.77
2018-06-13T13:07:25.460Z,3.30
2018-06-13T13:09:52.964Z,3.10
2018-06-13T13:12:20.898Z,2.73
2018-06-13T13:14:48.534Z,2.97
2018-06-13T13:17:15.953Z,2.80
2018-06-13T13:19:43.876Z,2.80
2018-06-13T13:22:11.918Z,3.20
2018-06-13T13:24:39.787Z,2.30
2018-06-13T13:27:07.594Z,2.70
2018-06-13T13:29:35.604Z,2.73
2018-06-13T13:32:03.617Z,2.33
2018-06-13T13:34:31.869Z,2.83
2018-06-13T13:36:59.656Z,2.07
2018-06-13T13:39:28.192Z,2.87
2018-06-13T13:41:56.332Z,2.77
2018-06-13T13:44:24.192Z,2.20
2018-06-13T13:46:52.126Z,2.47
2018-06-13T13:49:20.769Z,2.53
2018-06-13T13:51:49.090Z,2.30
2018-06-13T13:54:16.656Z,2.70
2018-06-13T13:56:44.725Z,2.77
2018-06-13T13:59:12.496Z,2.27
2018-06-13T14:01:40.285Z,2.43
2018-06-13T14:04:10.274Z,2.63
2018-06-13T14:06:38.200Z,2.60
2018-06-13T14:09:06.705Z,2.40
2018-06-13T14:11:34.197Z,2.60
2018-06-13T14:14:02.802Z,2.30
2018-06-13T14:16:30.505Z,2.50
2018-06-13T14:18:58.395Z,2.93
2018-06-13T14:21:26.308Z,2.93
2018-06-13T14:23:54.169Z,3.13
2018-06-13T14:26:22.589Z,2.47
2018-06-13T14:28:57.538Z,2.87
2018-06-13T14:31:26.480Z,2.90
2018-06-13T14:33:54.219Z,2.70
2018-06-13T14:36:21.901Z,2.83
2018-06-13T14:38:49.691Z,3.00
2018-06-13T14:41:17.027Z,2.90
2018-06-13T14:43:44.760Z,2.70
2018-06-13T14:46:12.428Z,2.50
2018-06-13T14:48:42.024Z,2.77
2018-06-13T14:51:09.641Z,2.43
2018-06-13T14:53:37.449Z,2.43
2018-06-13T14:56:37.625Z,2.80
2018-06-13T14:59:05.205Z,2.57
2018-06-13T15:01:33.518Z,3.00
2018-06-13T15:04:01.340Z,3.13
2018-06-13T15:06:29.721Z,2.20
2018-06-13T15:08:57.436Z,2.40
2018-06-13T15:11:25.352Z,2.47
2018-06-13T15:13:52.853Z,2.17
2018-06-13T15:16:21.960Z,2.23
2018-06-13T15:18:50.192Z,2.27
2018-06-13T15:21:18.271Z,2.40
2018-06-13T15:23:45.966Z,2.50
2018-06-13T15:26:14.302Z,2.43
2018-06-13T15:28:42.476Z,2.07
2018-06-13T15:31:10.327Z,2.23
2018-06-13T15:33:37.933Z,2.10
2018-06-13T15:36:05.963Z,2.07
2018-06-13T15:38:34.341Z,2.53
2018-06-13T15:41:02.260Z,2.37
2018-06-13T15:43:29.903Z,2.80
2018-06-13T15:45:58.742Z,2.57
2018-06-13T15:48:26.787Z,2.27
2018-06-13T15:50:54.548Z,2.20
2018-06-13T15:53:22.282Z,2.20
2018-06-13T15:55:49.649Z,2.23
2018-06-13T15:58:17.549Z,2.30
2018-06-13T16:00:45.153Z,2.20
2018-06-13T16:03:12.687Z,2.20
2018-06-13T16:05:40.718Z,2.50
2018-06-13T16:08:08.369Z,2.33
2018-06-13T16:10:36.869Z,2.07
2018-06-13T16:13:04.741Z,2.10
2018-06-13T16:15:32.323Z,2.17
2018-06-13T16:17:59.832Z,2.30
2018-06-13T16:20:28.037Z,2.37
2018-06-13T16:22:56.552Z,2.60
2018-06-13T16:25:24.857Z,7.63
2018-06-13T16:27:52.789Z,3.63
2018-06-13T16:30:21.003Z,3.30
2018-06-13T16:32:48.938Z,2.40
2018-06-13T16:35:16.657Z,2.80
2018-06-13T16:37:44.026Z,3.30
2018-06-13T16:40:11.813Z,3.20
2018-06-13T16:42:39.171Z,2.87
2018-06-13T16:45:07.900Z,3.20
2018-06-13T16:47:35.942Z,3.20
2018-06-13T16:50:08.016Z,2.90
2018-06-13T16:52:41.468Z,2.80
2018-06-13T16:55:16.760Z,2.77
2018-06-13T16:57:44.249Z,2.80
2018-06-13T17:00:11.958Z,3.00
2018-06-13T17:02:40.444Z,3.00
2018-06-13T17:05:08.182Z,2.67
2018-06-13T17:07:35.682Z,3.23
2018-06-13T17:10:04.667Z,2.90
2018-06-13T17:12:32.277Z,2.90
2018-06-13T17:15:00.398Z,2.60
2018-06-13T17:17:39.296Z,2.43
2018-06-13T17:20:08.493Z,2.37
2018-06-13T17:22:36.350Z,2.50
2018-06-13T17:25:04.492Z,2.57
2018-06-13T17:27:32.122Z,2.70
2018-06-13T17:30:00.016Z,2.50
2018-06-13T17:32:27.816Z,2.37
2018-06-13T17:34:55.593Z,2.73
2018-06-13T17:37:23.590Z,2.67
2018-06-13T17:39:51.306Z,2.80
2018-06-13T17:42:19.452Z,2.30
2018-06-13T17:44:46.889Z,2.50
2018-06-13T17:47:15.214Z,2.70
2018-06-13T17:49:42.598Z,2.50
2018-06-13T17:52:10.513Z,2.70
2018-06-13T17:54:46.270Z,2.90
2018-06-13T17:57:13.745Z,2.30
2018-06-13T17:59:41.255Z,2.63
2018-06-13T18:02:08.626Z,2.50
2018-06-13T18:04:36.828Z,2.63
2018-06-13T18:07:04.344Z,2.97
2018-06-13T18:09:32.260Z,2.80
2018-06-13T18:12:00.388Z,3.03
2018-06-13T18:14:28.061Z,2.50
2018-06-13T18:16:56.644Z,3.00
2018-06-13T18:19:25.493Z,2.40
2018-06-13T18:21:54.068Z,2.67
2018-06-13T18:24:21.578Z,2.37
2018-06-13T18:26:50.369Z,2.13
2018-06-13T18:29:17.748Z,3.03
2018-06-13T18:31:45.133Z,2.60
2018-06-13T18:34:12.567Z,2.67
2018-06-13T18:36:39.983Z,2.37
2018-06-13T18:39:08.712Z,2.10
2018-06-13T18:41:36.428Z,2.40
2018-06-13T18:44:04.167Z,2.93
2018-06-13T18:46:31.780Z,2.50
2018-06-13T18:48:59.446Z,2.87
2018-06-13T18:51:27.444Z,2.70
2018-06-13T18:53:54.835Z,2.40
2018-06-13T18:56:22.360Z,2.27
2018-06-13T18:58:49.741Z,2.80
2018-06-13T19:01:17.236Z,2.70
2018-06-13T19:03:45.083Z,2.90
2018-06-13T19:06:12.954Z,2.80
2018-06-13T19:08:54.259Z,2.63
2018-06-13T19:11:21.657Z,3.03
2018-06-13T19:13:49.189Z,3.43
2018-06-13T19:16:16.760Z,3.00
2018-06-13T19:18:48.597Z,2.47
2018-06-13T19:21:17.163Z,3.33
2018-06-13T19:23:44.564Z,3.13
2018-06-13T19:26:12.517Z,3.20
2018-06-13T19:28:39.835Z,3.20
2018-06-13T19:31:07.480Z,3.10
2018-06-13T19:33:35.017Z,3.10
2018-06-13T19:36:02.509Z,3.27
2018-06-13T19:38:30.092Z,2.90
2018-06-13T19:40:57.792Z,3.17
2018-06-13T19:43:31.062Z,3.20
2018-06-13T19:45:59.197Z,2.77
2018-06-13T19:49:06.141Z,3.37
2018-06-13T19:51:33.683Z,3.40
2018-06-13T19:54:07.057Z,3.60
2018-06-13T19:56:35.035Z,4.07
2018-06-13T19:59:03.471Z,4.40
2018-06-13T20:01:31.088Z,4.90
2018-06-13T20:04:04.523Z,3.80
2018-06-13T20:06:32.379Z,3.60
2018-06-13T20:09:00.158Z,3.90
2018-06-13T20:11:28.132Z,3.80
2018-06-13T20:14:02.241Z,3.37
2018-06-13T20:16:40.834Z,4.53
2018-06-13T20:19:13.816Z,3.40
2018-06-13T20:21:42.019Z,4.40
2018-06-13T20:24:10.543Z,4.30
2018-06-13T20:26:43.691Z,4.67
2018-06-13T20:29:16.896Z,4.20
2018-06-13T20:31:46.761Z,3.70
2018-06-13T20:34:14.344Z,4.40
2018-06-13T20:36:42.010Z,3.80
2018-06-13T20:39:10.828Z,3.60
2018-06-13T20:41:38.822Z,3.87
2018-06-13T20:44:06.522Z,4.10
2018-06-13T20:46:34.264Z,3.83
2018-06-13T20:49:02.420Z,4.00
2018-06-13T20:51:30.544Z,4.50
2018-06-13T20:53:58.295Z,4.10
2018-06-13T20:56:25.940Z,4.00
2018-06-13T20:58:53.996Z,3.90
2018-06-13T21:01:21.303Z,3.90
2018-06-13T21:03:50.720Z,4.17
2018-06-13T21:06:19.356Z,4.33
2018-06-13T21:08:47.313Z,3.73
2018-06-13T21:11:16.215Z,3.80
2018-06-13T21:13:43.971Z,4.10
2018-06-13T21:16:11.864Z,3.83
2018-06-13T21:18:40.126Z,4.00
2018-06-13T21:21:08.137Z,3.57
2018-06-13T21:23:35.808Z,3.87
2018-06-13T21:26:03.452Z,3.83
2018-06-13T21:28:31.820Z,4.30
2018-06-13T21:30:59.544Z,3.53
2018-06-13T21:33:27.561Z,4.17
2018-06-13T21:35:55.181Z,3.30
2018-06-13T21:38:22.583Z,4.40
2018-06-13T21:40:50.647Z,4.67
2018-06-13T21:43:18.585Z,4.63
2018-06-13T21:45:45.956Z,4.20
2018-06-13T21:48:13.852Z,4.63
2018-06-13T21:50:41.732Z,4.20
2018-06-13T21:53:09.583Z,3.90
2018-06-13T21:55:37.120Z,3.77
2018-06-13T21:58:04.936Z,3.87
2018-06-13T22:00:32.231Z,4.30
2018-06-13T22:02:59.517Z,3.80
2018-06-13T22:05:26.845Z,3.93
2018-06-13T22:07:54.125Z,4.00
2018-06-13T22:10:21.437Z,4.20
2018-06-13T22:12:48.709Z,4.00
2018-06-13T22:15:21.248Z,3.93
2018-06-13T22:17:48.508Z,4.33
2018-06-13T22:20:15.768Z,3.80
2018-06-13T22:22:43.065Z,4.60
2018-06-13T22:25:10.355Z,4.50
2018-06-13T22:27:37.669Z,4.10
2018-06-13T22:30:05.013Z,4.30
2018-06-13T22:32:32.295Z,4.17
2018-06-13T22:34:59.591Z,4.20
2018-06-13T22:37:26.877Z,4.50
2018-06-13T22:39:54.144Z,4.70
2018-06-13T22:42:21.472Z,4.80
2018-06-13T22:44:48.760Z,4.47
2018-06-13T22:47:16.065Z,4.70
2018-06-13T22:49:43.382Z,4.57
2018-06-13T22:52:10.696Z,4.40
2018-06-13T22:54:37.987Z,4.57
2018-06-13T22:57:05.292Z,4.07
2018-06-13T22:59:32.567Z,4.57
2018-06-13T23:01:59.877Z,4.33
2018-06-13T23:04:27.156Z,4.53
2018-06-13T23:06:54.470Z,4.40
2018-06-13T23:09:21.808Z,4.70
2018-06-13T23:11:49.091Z,4.53
2018-06-13T23:14:16.360Z,5.10
2018-06-13T23:16:43.662Z,4.70
2018-06-13T23:19:10.928Z,4.60
2018-06-13T23:21:38.240Z,4.60
2018-06-13T23:24:05.515Z,4.23
2018-06-13T23:26:32.852Z,4.50
2018-06-13T23:29:00.164Z,4.40
2018-06-13T23:31:27.432Z,4.30
2018-06-13T23:33:54.977Z,4.47
2018-06-13T23:36:22.311Z,4.30
2018-06-13T23:38:49.580Z,5.10
2018-06-13T23:41:16.864Z,4.77
2018-06-13T23:43:44.132Z,4.50
2018-06-13T23:46:11.432Z,4.87
2018-06-13T23:48:38.711Z,5.00
2018-06-13T23:51:05.996Z,5.03
2018-06-13T23:53:33.276Z,4.90
2018-06-13T23:56:00.545Z,4.57
2018-06-13T23:58:27.840Z,4.47
